createdAt,value
2023-03-27T00:00:12.953Z,8.90
2023-03-27T00:02:42.606Z,9.00
2023-03-27T00:05:11.325Z,8.90
2023-03-27T00:07:41.277Z,8.80
2023-03-27T00:10:10.370Z,8.80
2023-03-27T00:12:39.186Z,8.90
2023-03-27T00:15:08.345Z,8.70
2023-03-27T00:17:37.505Z,8.80
2023-03-27T00:20:08.011Z,8.80
2023-03-27T00:22:36.136Z,8.80
2023-03-27T00:25:05.194Z,8.90
2023-03-27T00:27:33.290Z,8.80
2023-03-27T00:30:01.324Z,8.80
2023-03-27T00:32:29.454Z,8.70
2023-03-27T00:34:57.560Z,8.80
2023-03-27T00:37:27.134Z,8.70
2023-03-27T00:39:55.717Z,8.70
2023-03-27T00:42:24.927Z,8.80
2023-03-27T00:44:54.203Z,8.70
2023-03-27T00:47:30.959Z,8.60
2023-03-27T00:50:00.602Z,8.60
2023-03-27T00:52:31.545Z,8.60
2023-03-27T00:55:04.149Z,8.60
2023-03-27T00:57:32.654Z,8.60
2023-03-27T01:00:02.404Z,8.60
2023-03-27T01:02:30.529Z,8.60
2023-03-27T01:04:58.907Z,8.60
2023-03-27T01:07:28.687Z,8.50
2023-03-27T01:09:58.272Z,8.60
2023-03-27T01:12:40.987Z,8.50
2023-03-27T01:15:26.476Z,8.50
2023-03-27T01:18:11.092Z,8.50
2023-03-27T01:21:24.089Z,8.50
2023-03-27T01:24:42.056Z,8.50
2023-03-27T01:27:18.529Z,8.40
2023-03-27T01:29:57.726Z,8.40
2023-03-27T01:32:52.269Z,8.40
2023-03-27T01:35:51.812Z,8.40
2023-03-27T01:38:37.779Z,8.40
2023-03-27T01:41:13.595Z,8.30
2023-03-27T01:43:47.292Z,8.30
2023-03-27T01:46:21.367Z,8.30
2023-03-27T01:48:56.002Z,8.30
2023-03-27T01:51:28.382Z,8.20
2023-03-27T01:54:00.893Z,8.30
2023-03-27T01:56:33.947Z,8.20
2023-03-27T01:59:07.846Z,8.10
2023-03-27T02:01:40.776Z,8.10
2023-03-27T02:04:13.660Z,8.20
2023-03-27T02:06:46.064Z,8.10
2023-03-27T02:09:20.506Z,8.10
2023-03-27T02:11:55.785Z,8.00
2023-03-27T02:14:28.565Z,7.90
2023-03-27T02:17:00.888Z,7.80
2023-03-27T02:19:35.194Z,7.80
2023-03-27T02:22:03.583Z,7.90
2023-03-27T02:24:31.677Z,7.80
2023-03-27T02:27:09.167Z,7.80
2023-03-27T02:29:49.321Z,7.70
2023-03-27T02:32:32.951Z,7.60
2023-03-27T02:35:09.995Z,7.50
2023-03-27T02:37:48.113Z,7.50
2023-03-27T02:40:25.874Z,7.60
2023-03-27T02:43:06.639Z,7.60
2023-03-27T02:45:48.976Z,7.50
2023-03-27T02:48:21.610Z,7.50
2023-03-27T02:50:54.632Z,7.50
2023-03-27T02:53:25.605Z,7.60
2023-03-27T02:55:56.445Z,7.50
2023-03-27T02:58:32.229Z,7.50
2023-03-27T03:01:01.931Z,7.30
2023-03-27T03:03:34.664Z,7.40
2023-03-27T03:06:07.090Z,7.30
2023-03-27T03:08:38.518Z,7.40
2023-03-27T03:11:10.080Z,7.30
2023-03-27T03:13:39.947Z,7.30
2023-03-27T03:16:09.972Z,7.20
2023-03-27T03:18:38.087Z,7.20
2023-03-27T03:21:06.858Z,7.10
2023-03-27T03:23:35.094Z,7.10
2023-03-27T03:26:03.443Z,7.00
2023-03-27T03:28:31.512Z,7.00
2023-03-27T03:31:02.795Z,7.00
2023-03-27T03:33:31.138Z,6.90
2023-03-27T03:36:00.866Z,6.90
2023-03-27T03:38:30.269Z,6.80
2023-03-27T03:41:07.122Z,6.80
2023-03-27T03:43:35.739Z,6.80
2023-03-27T03:46:05.648Z,6.80
2023-03-27T03:48:34.202Z,6.80
2023-03-27T03:51:02.319Z,6.80
2023-03-27T03:53:30.404Z,6.70
2023-03-27T03:55:58.506Z,6.70
2023-03-27T03:58:34.595Z,6.70
2023-03-27T04:01:04.573Z,6.70
2023-03-27T04:03:34.006Z,6.70
2023-03-27T04:06:05.571Z,6.60
2023-03-27T04:08:34.081Z,6.70
2023-03-27T04:11:02.206Z,6.70
2023-03-27T04:13:30.686Z,6.70
2023-03-27T04:16:01.801Z,6.70
2023-03-27T04:18:32.898Z,6.60
2023-03-27T04:21:01.472Z,6.70
2023-03-27T04:23:33.253Z,6.60
2023-03-27T04:26:04.038Z,6.60
2023-03-27T04:28:34.613Z,6.20
2023-03-27T04:31:06.463Z,6.30
2023-03-27T04:33:39.240Z,6.50
2023-03-27T04:36:09.056Z,6.50
2023-03-27T04:38:39.183Z,6.40
2023-03-27T04:41:07.990Z,6.40
2023-03-27T04:43:37.262Z,6.40
2023-03-27T04:46:06.678Z,6.40
2023-03-27T04:48:39.104Z,6.40
2023-03-27T04:51:09.364Z,6.30
2023-03-27T04:53:38.017Z,6.30
2023-03-27T04:56:07.363Z,6.30
2023-03-27T04:58:37.472Z,6.30
2023-03-27T05:01:06.444Z,6.30
2023-03-27T05:03:35.957Z,6.30
2023-03-27T05:06:04.866Z,6.30
2023-03-27T05:08:33.322Z,6.20
2023-03-27T05:11:01.587Z,6.30
2023-03-27T05:13:29.616Z,6.20
2023-03-27T05:15:59.163Z,6.20
2023-03-27T05:18:27.632Z,6.10
2023-03-27T05:20:57.521Z,6.10
2023-03-27T05:23:25.793Z,6.10
2023-03-27T05:25:59.792Z,5.90
2023-03-27T05:28:29.378Z,5.90
2023-03-27T05:30:58.370Z,5.90
2023-03-27T05:33:26.912Z,5.90
2023-03-27T05:35:57.522Z,5.90
2023-03-27T05:38:26.709Z,5.80
2023-03-27T05:40:54.988Z,5.90
2023-03-27T05:43:23.287Z,5.80
2023-03-27T05:45:51.704Z,5.80
2023-03-27T05:48:19.812Z,5.80
2023-03-27T05:50:47.916Z,5.80
2023-03-27T05:53:17.449Z,5.80
2023-03-27T05:55:46.380Z,5.90
2023-03-27T05:58:15.149Z,5.80
2023-03-27T06:00:44.198Z,5.80
2023-03-27T06:03:13.911Z,5.90
2023-03-27T06:05:43.027Z,5.80
2023-03-27T06:08:11.780Z,5.90
2023-03-27T06:10:44.291Z,5.90
2023-03-27T06:13:14.740Z,5.90
2023-03-27T06:15:44.431Z,5.80
2023-03-27T06:18:12.660Z,5.90
2023-03-27T06:20:41.430Z,5.90
2023-03-27T06:23:09.595Z,6.00
2023-03-27T06:25:39.847Z,6.00
2023-03-27T06:28:09.958Z,5.90
2023-03-27T06:30:38.963Z,5.90
2023-03-27T06:33:09.110Z,5.90
2023-03-27T06:35:37.813Z,5.90
2023-03-27T06:38:07.055Z,5.90
2023-03-27T06:40:36.363Z,5.90
2023-03-27T06:43:06.815Z,5.90
2023-03-27T06:45:38.703Z,5.90
2023-03-27T06:48:17.865Z,6.00
2023-03-27T06:50:51.207Z,6.10
2023-03-27T06:55:51.618Z,6.20
2023-03-27T06:58:20.508Z,6.30
2023-03-27T07:00:51.263Z,6.20
2023-03-27T07:03:20.731Z,6.30
2023-03-27T07:05:49.772Z,6.40
2023-03-27T07:08:24.064Z,6.40
2023-03-27T07:11:10.114Z,6.50
2023-03-27T07:13:41.077Z,6.50
2023-03-27T07:16:12.736Z,6.60
2023-03-27T07:18:41.835Z,6.70
2023-03-27T07:21:10.110Z,6.90
2023-03-27T07:23:38.340Z,6.70
2023-03-27T07:26:07.127Z,6.90
2023-03-27T07:28:38.515Z,7.00
2023-03-27T07:31:32.612Z,7.10
2023-03-27T07:34:03.137Z,7.10
2023-03-27T07:36:31.192Z,7.10
2023-03-27T07:38:59.359Z,7.20
2023-03-27T07:41:30.081Z,7.20
2023-03-27T07:43:58.291Z,7.30
2023-03-27T07:46:28.289Z,7.40
2023-03-27T07:48:56.661Z,7.60
2023-03-27T07:51:25.075Z,7.60
2023-03-27T07:53:58.457Z,7.50
2023-03-27T07:56:26.879Z,7.50
2023-03-27T07:58:55.296Z,7.50
2023-03-27T08:01:24.344Z,7.60
2023-03-27T08:03:55.028Z,7.70
2023-03-27T08:06:23.536Z,7.60
2023-03-27T08:08:51.952Z,7.60
2023-03-27T08:11:30.343Z,7.70
2023-03-27T08:13:59.627Z,8.00
2023-03-27T08:16:30.475Z,8.20
2023-03-27T08:19:01.372Z,8.50
2023-03-27T08:21:33.347Z,8.80
2023-03-27T08:24:03.034Z,9.00
2023-03-27T08:26:32.304Z,9.00
2023-03-27T08:29:01.129Z,8.90
2023-03-27T08:31:31.317Z,9.00
2023-03-27T08:34:01.030Z,9.10
2023-03-27T08:36:29.331Z,9.10
2023-03-27T08:38:58.016Z,9.40
2023-03-27T08:41:30.780Z,9.50
2023-03-27T08:44:04.027Z,9.50
2023-03-27T08:46:37.766Z,9.80
2023-03-27T08:49:12.963Z,10.00
2023-03-27T08:51:48.404Z,10.10
2023-03-27T08:54:21.548Z,10.30
2023-03-27T08:56:50.407Z,10.40
2023-03-27T08:59:21.525Z,10.40
2023-03-27T09:01:58.771Z,10.40
2023-03-27T09:04:39.216Z,10.50
2023-03-27T09:07:12.720Z,10.60
2023-03-27T09:09:53.166Z,10.70
2023-03-27T09:12:38.737Z,11.00
2023-03-27T09:15:13.621Z,10.90
2023-03-27T09:17:45.481Z,11.10
2023-03-27T09:20:20.417Z,11.20
2023-03-27T09:22:53.879Z,11.40
2023-03-27T09:25:27.524Z,11.50
2023-03-27T09:27:57.057Z,11.50
2023-03-27T09:30:28.181Z,11.50
2023-03-27T09:33:00.185Z,11.40
2023-03-27T09:35:29.922Z,11.30
2023-03-27T09:38:03.924Z,11.50
2023-03-27T09:40:38.567Z,11.70
2023-03-27T09:43:10.189Z,11.80
2023-03-27T09:45:41.621Z,11.90
2023-03-27T09:48:15.609Z,12.00
2023-03-27T09:50:47.494Z,12.00
2023-03-27T09:53:19.168Z,12.20
2023-03-27T09:55:52.988Z,12.30
2023-03-27T09:58:35.433Z,12.00
2023-03-27T10:01:14.527Z,11.80
2023-03-27T10:03:49.137Z,11.70
2023-03-27T10:06:30.635Z,11.80
2023-03-27T10:09:01.250Z,11.90
2023-03-27T10:11:32.826Z,12.20
2023-03-27T10:14:02.576Z,12.20
2023-03-27T10:16:39.037Z,12.40
2023-03-27T10:19:07.477Z,12.50
2023-03-27T10:21:42.010Z,12.30
2023-03-27T10:24:23.046Z,12.10
2023-03-27T10:26:53.899Z,12.20
2023-03-27T10:29:25.583Z,12.30
2023-03-27T10:31:55.721Z,12.30
2023-03-27T10:34:33.682Z,12.20
2023-03-27T10:37:04.601Z,12.30
2023-03-27T10:39:36.552Z,12.30
2023-03-27T10:42:09.180Z,12.20
2023-03-27T10:44:39.263Z,12.10
2023-03-27T10:47:17.721Z,12.10
2023-03-27T10:49:53.893Z,12.00
2023-03-27T10:52:28.513Z,12.20
2023-03-27T10:55:12.816Z,12.20
2023-03-27T10:57:43.197Z,12.30
2023-03-27T11:00:18.571Z,12.30
2023-03-27T11:02:53.739Z,12.30
2023-03-27T11:05:28.064Z,12.30
2023-03-27T11:08:04.100Z,12.20
2023-03-27T11:10:35.953Z,12.30
2023-03-27T11:13:11.085Z,12.40
2023-03-27T11:15:43.580Z,12.40
2023-03-27T11:18:17.882Z,12.20
2023-03-27T11:20:52.685Z,12.20
2023-03-27T11:23:30.061Z,12.20
2023-03-27T11:25:59.989Z,12.30
2023-03-27T11:28:39.709Z,12.30
2023-03-27T11:31:16.633Z,12.20
2023-03-27T11:33:50.757Z,12.00
2023-03-27T11:36:35.082Z,12.30
2023-03-27T11:39:15.455Z,12.30
2023-03-27T11:41:45.336Z,12.30
2023-03-27T11:44:13.516Z,12.40
2023-03-27T11:47:07.453Z,12.30
2023-03-27T11:49:57.541Z,12.10
2023-03-27T11:52:39.464Z,11.80
2023-03-27T11:55:24.753Z,12.00
2023-03-27T11:58:04.531Z,12.10
2023-03-27T12:00:39.530Z,12.20
2023-03-27T12:03:48.952Z,12.10
2023-03-27T12:06:25.176Z,12.10
2023-03-27T12:09:11.087Z,12.20
2023-03-27T12:11:44.965Z,12.30
2023-03-27T12:14:41.278Z,12.40
2023-03-27T12:17:44.839Z,12.20
2023-03-27T12:20:28.123Z,12.40
2023-03-27T12:23:03.843Z,12.30
2023-03-27T12:25:53.218Z,12.00
2023-03-27T12:28:41.045Z,11.90
2023-03-27T12:31:26.164Z,11.90
2023-03-27T12:34:01.908Z,11.90
2023-03-27T12:36:37.438Z,11.80
2023-03-27T12:39:16.256Z,11.70
2023-03-27T12:41:46.501Z,11.70
2023-03-27T12:44:21.620Z,11.70
2023-03-27T12:47:09.641Z,11.70
2023-03-27T12:49:47.432Z,11.70
2023-03-27T12:52:18.719Z,11.70
2023-03-27T12:55:07.779Z,11.70
2023-03-27T12:57:44.312Z,11.60
2023-03-27T13:00:25.486Z,11.60
2023-03-27T13:03:27.798Z,11.50
2023-03-27T13:06:18.698Z,11.40
2023-03-27T13:09:08.363Z,11.40
2023-03-27T13:11:50.977Z,11.40
2023-03-27T13:14:53.353Z,11.50
2023-03-27T13:17:54.736Z,11.30
2023-03-27T13:20:32.027Z,11.20
2023-03-27T13:23:27.167Z,11.20
2023-03-27T13:26:14.191Z,11.00
2023-03-27T13:28:48.553Z,11.00
2023-03-27T13:31:50.411Z,11.00
2023-03-27T13:34:34.254Z,10.90
2023-03-27T13:37:42.848Z,11.20
2023-03-27T13:40:27.164Z,11.40
2023-03-27T13:43:02.464Z,11.50
2023-03-27T13:45:39.926Z,11.60
2023-03-27T13:49:00.216Z,11.70
2023-03-27T13:51:44.411Z,11.60
2023-03-27T13:54:32.445Z,11.50
2023-03-27T13:57:21.941Z,11.20
2023-03-27T14:00:20.042Z,11.00
2023-03-27T14:03:32.608Z,10.70
2023-03-27T14:06:28.441Z,10.30
2023-03-27T14:09:06.185Z,10.10
2023-03-27T14:11:45.922Z,9.90
2023-03-27T14:14:43.982Z,9.80
2023-03-27T14:17:50.826Z,9.50
2023-03-27T14:20:23.684Z,9.50
2023-03-27T14:22:59.274Z,9.50
2023-03-27T14:25:34.163Z,9.40
2023-03-27T14:28:02.632Z,9.40
2023-03-27T14:30:34.861Z,9.50
2023-03-27T14:33:09.492Z,9.60
2023-03-27T14:35:39.974Z,9.50
2023-03-27T14:38:17.066Z,9.60
2023-03-27T14:40:50.315Z,9.50
2023-03-27T14:43:19.338Z,9.40
2023-03-27T14:45:49.321Z,9.40
2023-03-27T14:48:27.558Z,9.40
2023-03-27T14:50:58.042Z,9.50
2023-03-27T14:53:31.404Z,9.40
2023-03-27T14:56:10.638Z,9.40
2023-03-27T14:58:43.594Z,9.60
2023-03-27T15:01:17.200Z,9.90
2023-03-27T15:03:47.087Z,10.10
2023-03-27T15:06:19.302Z,10.10
2023-03-27T15:08:52.250Z,10.10
2023-03-27T15:11:25.259Z,10.10
2023-03-27T15:13:53.518Z,10.20
2023-03-27T15:16:25.778Z,10.20
2023-03-27T15:19:10.619Z,10.30
2023-03-27T15:21:46.691Z,10.40
2023-03-27T15:24:20.218Z,10.30
2023-03-27T15:26:51.927Z,10.30
2023-03-27T15:29:27.432Z,10.20
2023-03-27T15:31:59.856Z,10.10
2023-03-27T15:34:34.277Z,10.00
2023-03-27T15:37:06.245Z,10.00
2023-03-27T15:39:34.858Z,9.90
2023-03-27T15:42:07.193Z,9.90
2023-03-27T15:44:35.551Z,9.90
2023-03-27T15:47:03.706Z,9.80
2023-03-27T15:49:37.678Z,9.60
2023-03-27T15:52:31.586Z,9.60
2023-03-27T15:55:00.794Z,9.60
2023-03-27T15:57:30.561Z,9.40
2023-03-27T16:00:08.569Z,9.30
2023-03-27T16:02:37.358Z,9.10
2023-03-27T16:05:07.568Z,9.00
2023-03-27T16:07:46.522Z,8.80
2023-03-27T16:10:15.953Z,8.70
2023-03-27T16:12:56.476Z,8.60
2023-03-27T16:15:35.025Z,8.40
2023-03-27T16:18:14.926Z,8.20
2023-03-27T16:20:43.698Z,8.30
2023-03-27T16:23:12.516Z,8.30
2023-03-27T16:25:41.381Z,8.40
2023-03-27T16:28:13.471Z,8.40
2023-03-27T16:30:42.374Z,8.40
2023-03-27T16:33:16.047Z,8.40
2023-03-27T16:35:45.406Z,8.30
2023-03-27T16:38:14.373Z,8.30
2023-03-27T16:40:42.914Z,8.20
2023-03-27T16:43:12.542Z,8.20
2023-03-27T16:45:41.056Z,8.30
2023-03-27T16:48:09.428Z,8.20
2023-03-27T16:50:37.931Z,8.20
2023-03-27T16:53:06.232Z,8.30
2023-03-27T16:55:34.356Z,8.20
2023-03-27T16:58:03.817Z,8.10
2023-03-27T17:00:33.680Z,8.20
2023-03-27T17:03:01.846Z,8.20
2023-03-27T17:05:34.081Z,8.20
2023-03-27T17:08:04.560Z,8.20
2023-03-27T17:10:34.199Z,8.10
2023-03-27T17:13:02.295Z,8.20
2023-03-27T17:15:30.691Z,8.20
2023-03-27T17:18:02.948Z,8.10
2023-03-27T17:20:31.107Z,8.20
2023-03-27T17:22:59.260Z,8.20
2023-03-27T17:25:28.713Z,8.30
2023-03-27T17:27:57.027Z,8.10
2023-03-27T17:30:38.158Z,8.00
2023-03-27T17:33:11.534Z,7.90
2023-03-27T17:35:40.622Z,7.90
2023-03-27T17:38:09.417Z,7.90
2023-03-27T17:40:40.356Z,7.80
2023-03-27T17:43:08.827Z,7.80
2023-03-27T17:45:40.667Z,7.80
2023-03-27T17:48:11.466Z,7.80
2023-03-27T17:50:40.004Z,7.80
2023-03-27T17:53:08.244Z,7.80
2023-03-27T17:55:38.853Z,7.80
2023-03-27T17:58:10.099Z,7.70
2023-03-27T18:00:39.593Z,7.60
2023-03-27T18:03:09.312Z,7.30
2023-03-27T18:05:39.655Z,7.60
2023-03-27T18:08:09.398Z,7.60
2023-03-27T18:10:37.962Z,7.60
2023-03-27T18:13:06.224Z,7.50
2023-03-27T18:15:34.396Z,7.40
2023-03-27T18:18:03.556Z,7.30
2023-03-27T18:20:31.757Z,7.40
2023-03-27T18:23:01.533Z,7.30
2023-03-27T18:25:30.433Z,7.30
2023-03-27T18:27:58.992Z,7.20
2023-03-27T18:30:27.413Z,7.10
2023-03-27T18:32:55.809Z,7.10
2023-03-27T18:35:25.037Z,7.10
2023-03-27T18:37:53.146Z,7.10
2023-03-27T18:40:22.739Z,7.10
2023-03-27T18:42:51.128Z,7.10
2023-03-27T18:45:19.384Z,7.00
2023-03-27T18:47:47.642Z,7.10
2023-03-27T18:50:16.084Z,7.10
2023-03-27T18:52:44.520Z,7.10
2023-03-27T18:55:13.427Z,7.10
2023-03-27T18:57:42.977Z,7.00
2023-03-27T19:00:18.271Z,7.00
2023-03-27T19:02:46.650Z,7.00
2023-03-27T19:05:16.256Z,7.00
2023-03-27T19:07:45.228Z,7.00
2023-03-27T19:10:14.082Z,7.00
2023-03-27T19:12:44.424Z,6.80
2023-03-27T19:15:19.945Z,6.90
2023-03-27T19:17:48.794Z,6.80
2023-03-27T19:20:17.139Z,6.80
2023-03-27T19:22:45.456Z,6.60
2023-03-27T19:25:13.706Z,6.70
2023-03-27T19:27:43.317Z,6.70
2023-03-27T19:30:13.927Z,6.60
2023-03-27T19:32:42.282Z,6.70
2023-03-27T19:35:11.543Z,6.70
2023-03-27T19:37:39.740Z,6.80
2023-03-27T19:40:10.105Z,6.80
2023-03-27T19:42:38.192Z,6.80
2023-03-27T19:45:08.757Z,6.60
2023-03-27T19:47:37.329Z,6.60
2023-03-27T19:50:08.580Z,6.80
2023-03-27T19:52:36.785Z,6.80
2023-03-27T19:55:06.858Z,6.80
2023-03-27T19:57:35.318Z,6.80
2023-03-27T20:00:06.498Z,6.80
2023-03-27T20:02:36.086Z,6.90
2023-03-27T20:05:04.676Z,6.90
2023-03-27T20:07:33.438Z,6.90
2023-03-27T20:10:01.645Z,6.90
2023-03-27T20:12:31.849Z,6.90
2023-03-27T20:15:11.859Z,6.90
2023-03-27T20:17:43.034Z,6.90
2023-03-27T20:20:12.486Z,6.90
2023-03-27T20:22:54.376Z,6.90
2023-03-27T20:25:25.553Z,6.80
2023-03-27T20:27:53.669Z,6.80
2023-03-27T20:30:21.756Z,6.80
2023-03-27T20:32:51.354Z,6.70
2023-03-27T20:35:24.404Z,6.70
2023-03-27T20:37:57.658Z,6.70
2023-03-27T20:40:26.459Z,6.70
2023-03-27T20:43:05.706Z,6.70
2023-03-27T20:45:33.849Z,6.80
2023-03-27T20:48:04.395Z,6.80
2023-03-27T20:50:35.179Z,6.80
2023-03-27T20:53:05.871Z,6.90
2023-03-27T20:55:39.371Z,6.80
2023-03-27T20:58:09.756Z,6.60
2023-03-27T21:00:38.013Z,6.50
2023-03-27T21:03:07.566Z,6.50
2023-03-27T21:05:38.333Z,6.40
2023-03-27T21:08:07.423Z,6.30
2023-03-27T21:10:36.650Z,6.40
2023-03-27T21:13:05.047Z,6.40
2023-03-27T21:15:33.678Z,6.30
2023-03-27T21:18:02.497Z,6.30
2023-03-27T21:20:34.592Z,6.30
2023-03-27T21:23:03.438Z,6.40
2023-03-27T21:25:31.642Z,6.40
2023-03-27T21:27:59.678Z,6.20
2023-03-27T21:30:46.771Z,6.20
2023-03-27T21:33:16.868Z,6.20
2023-03-27T21:35:48.871Z,6.20
2023-03-27T21:38:18.487Z,6.20
2023-03-27T21:40:47.576Z,6.30
2023-03-27T21:43:15.972Z,6.30
2023-03-27T21:45:44.336Z,6.20
2023-03-27T21:48:13.355Z,6.20
2023-03-27T21:50:41.700Z,6.20
2023-03-27T21:53:11.515Z,6.20
2023-03-27T21:55:39.588Z,6.20
2023-03-27T21:58:07.676Z,6.20
2023-03-27T22:00:36.088Z,6.20
2023-03-27T22:03:04.209Z,6.10
2023-03-27T22:05:32.281Z,6.10
2023-03-27T22:08:01.114Z,6.10
2023-03-27T22:10:30.896Z,6.10
2023-03-27T22:12:58.997Z,5.90
2023-03-27T22:15:27.200Z,5.80
2023-03-27T22:17:55.294Z,5.80
2023-03-27T22:20:23.810Z,5.60
2023-03-27T22:22:51.917Z,5.70
2023-03-27T22:25:20.482Z,5.70
2023-03-27T22:27:50.591Z,5.70
2023-03-27T22:30:18.819Z,5.70
2023-03-27T22:32:46.898Z,5.70
2023-03-27T22:35:15.069Z,5.70
2023-03-27T22:37:43.141Z,5.70
2023-03-27T22:40:12.168Z,5.60
2023-03-27T22:42:40.274Z,5.60
2023-03-27T22:45:11.051Z,5.60
2023-03-27T22:47:39.200Z,5.70
2023-03-27T22:50:08.739Z,5.70
2023-03-27T22:52:36.839Z,5.60
2023-03-27T22:55:05.390Z,5.60
2023-03-27T22:57:33.527Z,5.60
2023-03-27T23:00:01.814Z,5.60
2023-03-27T23:02:31.472Z,5.60
2023-03-27T23:04:59.662Z,5.50
2023-03-27T23:07:27.819Z,5.40
2023-03-27T23:09:56.042Z,5.50
2023-03-27T23:12:24.189Z,5.50
2023-03-27T23:14:52.330Z,5.40
2023-03-27T23:17:20.446Z,5.40
2023-03-27T23:19:50.002Z,5.40
2023-03-27T23:22:18.145Z,5.30
2023-03-27T23:24:46.245Z,5.30
2023-03-27T23:27:14.428Z,5.30
2023-03-27T23:29:42.487Z,5.30
2023-03-27T23:32:10.651Z,5.30
2023-03-27T23:34:38.738Z,5.30
2023-03-27T23:37:08.160Z,5.20
2023-03-27T23:39:36.241Z,5.20
2023-03-27T23:42:04.353Z,5.20
2023-03-27T23:44:32.531Z,5.20
2023-03-27T23:47:00.689Z,5.20
2023-03-27T23:49:28.831Z,5.20
2023-03-27T23:51:56.960Z,5.10
2023-03-27T23:54:26.832Z,5.20
2023-03-27T23:56:54.918Z,5.10
2023-03-27T23:59:23.030Z,5.10
